sensor_id;sensor_type;location;lat;lon;timestamp;P1;durP1;ratioP1;P2;durP2;ratioP2
29662;SDS011;16578;53.266;7.920;2022-12-13T00:00:08;59.90;;;30.65;;
29662;SDS011;16578;53.266;7.920;2022-12-13T00:02:38;64.93;;;32.70;;
29662;SDS011;16578;53.266;7.920;2022-12-13T00:05:07;65.90;;;34.17;;
29662;SDS011;16578;53.266;7.920;2022-12-13T00:07:33;70.55;;;34.05;;
29662;SDS011;16578;53.266;7.920;2022-12-13T00:09:59;73.38;;;34.35;;
29662;SDS011;16578;53.266;7.920;2022-12-13T00:12:25;78.43;;;35.30;;
29662;SDS011;16578;53.266;7.920;2022-12-13T00:14:50;70.30;;;34.15;;
29662;SDS011;16578;53.266;7.920;2022-12-13T00:17:16;69.65;;;34.83;;
29662;SDS011;16578;53.266;7.920;2022-12-13T00:19:41;69.65;;;34.70;;
29662;SDS011;16578;53.266;7.920;2022-12-13T00:22:07;70.05;;;34.13;;
29662;SDS011;16578;53.266;7.920;2022-12-13T00:24:33;59.47;;;31.05;;
29662;SDS011;16578;53.266;7.920;2022-12-13T00:26:58;63.38;;;31.15;;
29662;SDS011;16578;53.266;7.920;2022-12-13T00:29:24;68.50;;;32.15;;
29662;SDS011;16578;53.266;7.920;2022-12-13T00:31:50;57.13;;;29.77;;
29662;SDS011;16578;53.266;7.920;2022-12-13T00:34:15;54.83;;;29.33;;
29662;SDS011;16578;53.266;7.920;2022-12-13T00:36:42;58.63;;;28.10;;
29662;SDS011;16578;53.266;7.920;2022-12-13T00:39:08;60.17;;;28.60;;
29662;SDS011;16578;53.266;7.920;2022-12-13T00:44:02;51.88;;;26.52;;
29662;SDS011;16578;53.266;7.920;2022-12-13T00:46:29;54.40;;;27.23;;
29662;SDS011;16578;53.266;7.920;2022-12-13T00:48:55;50.70;;;27.45;;
29662;SDS011;16578;53.266;7.920;2022-12-13T00:51:23;58.38;;;27.92;;
29662;SDS011;16578;53.266;7.920;2022-12-13T00:53:49;47.97;;;24.88;;
29662;SDS011;16578;53.266;7.920;2022-12-13T00:56:17;52.88;;;26.70;;
29662;SDS011;16578;53.266;7.920;2022-12-13T00:58:45;57.80;;;29.35;;
29662;SDS011;16578;53.266;7.920;2022-12-13T01:01:12;57.15;;;28.35;;
29662;SDS011;16578;53.266;7.920;2022-12-13T01:03:39;53.20;;;28.58;;
29662;SDS011;16578;53.266;7.920;2022-12-13T01:06:15;51.78;;;27.65;;
29662;SDS011;16578;53.266;7.920;2022-12-13T01:08:43;51.25;;;27.75;;
29662;SDS011;16578;53.266;7.920;2022-12-13T01:11:09;49.50;;;26.75;;
29662;SDS011;16578;53.266;7.920;2022-12-13T01:13:35;51.72;;;26.58;;
29662;SDS011;16578;53.266;7.920;2022-12-13T01:16:02;45.70;;;23.98;;
29662;SDS011;16578;53.266;7.920;2022-12-13T01:18:29;53.20;;;27.45;;
29662;SDS011;16578;53.266;7.920;2022-12-13T01:21:03;47.55;;;23.35;;
29662;SDS011;16578;53.266;7.920;2022-12-13T01:23:30;47.97;;;25.15;;
29662;SDS011;16578;53.266;7.920;2022-12-13T01:25:56;46.15;;;24.45;;
29662;SDS011;16578;53.266;7.920;2022-12-13T01:28:23;49.72;;;25.00;;
29662;SDS011;16578;53.266;7.920;2022-12-13T01:30:59;52.38;;;26.63;;
29662;SDS011;16578;53.266;7.920;2022-12-13T01:33:27;49.60;;;24.45;;
29662;SDS011;16578;53.266;7.920;2022-12-13T01:35:53;56.22;;;26.60;;
29662;SDS011;16578;53.266;7.920;2022-12-13T01:38:19;59.28;;;27.17;;
29662;SDS011;16578;53.266;7.920;2022-12-13T01:40:46;50.80;;;25.38;;
29662;SDS011;16578;53.266;7.920;2022-12-13T01:43:22;47.55;;;25.60;;
29662;SDS011;16578;53.266;7.920;2022-12-13T01:46:00;48.42;;;24.38;;
29662;SDS011;16578;53.266;7.920;2022-12-13T01:48:26;50.90;;;26.98;;
29662;SDS011;16578;53.266;7.920;2022-12-13T01:50:56;50.17;;;26.35;;
29662;SDS011;16578;53.266;7.920;2022-12-13T01:53:27;54.28;;;28.30;;
29662;SDS011;16578;53.266;7.920;2022-12-13T01:55:56;52.35;;;28.10;;
29662;SDS011;16578;53.266;7.920;2022-12-13T01:58:28;56.53;;;27.58;;
29662;SDS011;16578;53.266;7.920;2022-12-13T02:00:54;52.70;;;26.73;;
29662;SDS011;16578;53.266;7.920;2022-12-13T02:03:22;47.88;;;25.77;;
29662;SDS011;16578;53.266;7.920;2022-12-13T02:08:30;52.25;;;26.20;;
29662;SDS011;16578;53.266;7.920;2022-12-13T02:10:58;50.70;;;25.95;;
29662;SDS011;16578;53.266;7.920;2022-12-13T02:13:25;51.22;;;26.42;;
29662;SDS011;16578;53.266;7.920;2022-12-13T02:16:00;56.42;;;24.95;;
29662;SDS011;16578;53.266;7.920;2022-12-13T02:24:05;51.17;;;27.50;;
29662;SDS011;16578;53.266;7.920;2022-12-13T02:32:22;59.20;;;28.17;;
29662;SDS011;16578;53.266;7.920;2022-12-13T02:37:23;68.85;;;29.77;;
29662;SDS011;16578;53.266;7.920;2022-12-13T02:40:37;67.75;;;29.85;;
29662;SDS011;16578;53.266;7.920;2022-12-13T02:43:10;67.22;;;27.48;;
29662;SDS011;16578;53.266;7.920;2022-12-13T02:45:48;81.10;;;29.67;;
29662;SDS011;16578;53.266;7.920;2022-12-13T02:48:24;102.82;;;29.85;;
29662;SDS011;16578;53.266;7.920;2022-12-13T02:50:53;68.10;;;29.13;;
29662;SDS011;16578;53.266;7.920;2022-12-13T02:53:20;83.38;;;30.80;;
29662;SDS011;16578;53.266;7.920;2022-12-13T02:55:47;70.32;;;31.63;;
29662;SDS011;16578;53.266;7.920;2022-12-13T02:58:14;77.80;;;28.92;;
29662;SDS011;16578;53.266;7.920;2022-12-13T03:00:52;62.83;;;29.58;;
29662;SDS011;16578;53.266;7.920;2022-12-13T03:03:25;78.32;;;31.10;;
29662;SDS011;16578;53.266;7.920;2022-12-13T03:06:11;71.85;;;27.65;;
29662;SDS011;16578;53.266;7.920;2022-12-13T03:11:57;58.35;;;28.50;;
29662;SDS011;16578;53.266;7.920;2022-12-13T03:15:19;93.63;;;28.73;;
29662;SDS011;16578;53.266;7.920;2022-12-13T03:17:59;71.00;;;27.77;;
29662;SDS011;16578;53.266;7.920;2022-12-13T03:20:30;82.40;;;29.35;;
29662;SDS011;16578;53.266;7.920;2022-12-13T03:22:56;83.90;;;31.17;;
29662;SDS011;16578;53.266;7.920;2022-12-13T03:25:25;56.58;;;28.95;;
29662;SDS011;16578;53.266;7.920;2022-12-13T03:27:54;63.50;;;27.92;;
29662;SDS011;16578;53.266;7.920;2022-12-13T03:30:19;61.85;;;30.65;;
29662;SDS011;16578;53.266;7.920;2022-12-13T03:32:45;60.13;;;29.23;;
29662;SDS011;16578;53.266;7.920;2022-12-13T03:35:10;60.28;;;28.13;;
29662;SDS011;16578;53.266;7.920;2022-12-13T03:37:36;63.53;;;30.42;;
29662;SDS011;16578;53.266;7.920;2022-12-13T03:40:02;69.55;;;28.52;;
29662;SDS011;16578;53.266;7.920;2022-12-13T03:42:27;60.92;;;29.08;;
29662;SDS011;16578;53.266;7.920;2022-12-13T03:44:53;62.55;;;27.52;;
29662;SDS011;16578;53.266;7.920;2022-12-13T03:47:18;93.35;;;27.55;;
29662;SDS011;16578;53.266;7.920;2022-12-13T03:49:44;70.15;;;28.27;;
29662;SDS011;16578;53.266;7.920;2022-12-13T03:52:10;92.93;;;27.17;;
29662;SDS011;16578;53.266;7.920;2022-12-13T03:54:35;131.55;;;29.33;;
29662;SDS011;16578;53.266;7.920;2022-12-13T03:57:01;80.28;;;28.98;;
29662;SDS011;16578;53.266;7.920;2022-12-13T03:59:27;82.68;;;29.73;;
29662;SDS011;16578;53.266;7.920;2022-12-13T04:01:52;72.55;;;28.48;;
29662;SDS011;16578;53.266;7.920;2022-12-13T04:04:18;72.70;;;28.98;;
29662;SDS011;16578;53.266;7.920;2022-12-13T04:06:43;70.70;;;28.40;;
29662;SDS011;16578;53.266;7.920;2022-12-13T04:09:09;64.75;;;27.55;;
29662;SDS011;16578;53.266;7.920;2022-12-13T04:11:34;69.50;;;28.63;;
29662;SDS011;16578;53.266;7.920;2022-12-13T04:14:18;63.90;;;27.60;;
29662;SDS011;16578;53.266;7.920;2022-12-13T04:16:44;58.80;;;28.58;;
29662;SDS011;16578;53.266;7.920;2022-12-13T04:19:09;67.50;;;29.08;;
29662;SDS011;16578;53.266;7.920;2022-12-13T04:21:35;57.00;;;27.83;;
29662;SDS011;16578;53.266;7.920;2022-12-13T04:24:00;57.55;;;28.25;;
29662;SDS011;16578;53.266;7.920;2022-12-13T04:26:26;57.60;;;28.92;;
29662;SDS011;16578;53.266;7.920;2022-12-13T04:28:52;63.08;;;27.10;;
29662;SDS011;16578;53.266;7.920;2022-12-13T04:31:18;56.65;;;27.02;;
29662;SDS011;16578;53.266;7.920;2022-12-13T04:33:43;56.28;;;26.25;;
29662;SDS011;16578;53.266;7.920;2022-12-13T04:36:09;55.92;;;26.13;;
29662;SDS011;16578;53.266;7.920;2022-12-13T04:38:34;52.85;;;24.80;;
29662;SDS011;16578;53.266;7.920;2022-12-13T04:41:03;59.38;;;25.67;;
29662;SDS011;16578;53.266;7.920;2022-12-13T04:43:36;81.07;;;27.15;;
29662;SDS011;16578;53.266;7.920;2022-12-13T04:46:02;69.50;;;25.60;;
29662;SDS011;16578;53.266;7.920;2022-12-13T04:48:27;51.97;;;26.40;;
29662;SDS011;16578;53.266;7.920;2022-12-13T04:50:53;59.30;;;26.35;;
29662;SDS011;16578;53.266;7.920;2022-12-13T04:53:18;48.72;;;25.13;;
29662;SDS011;16578;53.266;7.920;2022-12-13T04:55:44;51.03;;;25.42;;
29662;SDS011;16578;53.266;7.920;2022-12-13T04:58:09;50.15;;;25.50;;
29662;SDS011;16578;53.266;7.920;2022-12-13T05:00:35;50.72;;;25.75;;
29662;SDS011;16578;53.266;7.920;2022-12-13T05:03:00;46.20;;;24.90;;
29662;SDS011;16578;53.266;7.920;2022-12-13T05:05:26;47.83;;;25.30;;
29662;SDS011;16578;53.266;7.920;2022-12-13T05:07:51;47.35;;;24.20;;
29662;SDS011;16578;53.266;7.920;2022-12-13T05:10:17;52.13;;;24.92;;
29662;SDS011;16578;53.266;7.920;2022-12-13T05:12:42;55.53;;;25.80;;
29662;SDS011;16578;53.266;7.920;2022-12-13T05:15:08;48.08;;;24.98;;
29662;SDS011;16578;53.266;7.920;2022-12-13T05:17:33;54.33;;;28.25;;
29662;SDS011;16578;53.266;7.920;2022-12-13T05:19:59;53.05;;;25.58;;
29662;SDS011;16578;53.266;7.920;2022-12-13T05:22:25;53.70;;;27.30;;
29662;SDS011;16578;53.266;7.920;2022-12-13T05:24:50;54.15;;;24.55;;
29662;SDS011;16578;53.266;7.920;2022-12-13T05:27:16;61.38;;;26.33;;
29662;SDS011;16578;53.266;7.920;2022-12-13T05:29:42;52.13;;;24.70;;
29662;SDS011;16578;53.266;7.920;2022-12-13T05:32:08;57.65;;;25.88;;
29662;SDS011;16578;53.266;7.920;2022-12-13T05:34:33;54.00;;;25.98;;
29662;SDS011;16578;53.266;7.920;2022-12-13T05:36:59;46.78;;;25.50;;
29662;SDS011;16578;53.266;7.920;2022-12-13T05:39:24;50.22;;;25.10;;
29662;SDS011;16578;53.266;7.920;2022-12-13T05:41:50;50.40;;;23.48;;
29662;SDS011;16578;53.266;7.920;2022-12-13T05:44:16;49.15;;;26.40;;
29662;SDS011;16578;53.266;7.920;2022-12-13T05:46:42;48.55;;;26.13;;
29662;SDS011;16578;53.266;7.920;2022-12-13T05:49:07;49.00;;;27.52;;
29662;SDS011;16578;53.266;7.920;2022-12-13T05:51:33;47.15;;;26.45;;
29662;SDS011;16578;53.266;7.920;2022-12-13T05:53:58;47.78;;;25.33;;
29662;SDS011;16578;53.266;7.920;2022-12-13T05:56:24;46.65;;;24.35;;
29662;SDS011;16578;53.266;7.920;2022-12-13T05:58:49;52.03;;;24.52;;
29662;SDS011;16578;53.266;7.920;2022-12-13T06:01:15;49.70;;;24.48;;
29662;SDS011;16578;53.266;7.920;2022-12-13T06:03:41;49.85;;;25.27;;
29662;SDS011;16578;53.266;7.920;2022-12-13T06:06:07;43.92;;;23.38;;
29662;SDS011;16578;53.266;7.920;2022-12-13T06:08:34;43.42;;;23.08;;
29662;SDS011;16578;53.266;7.920;2022-12-13T06:11:00;69.32;;;25.70;;
29662;SDS011;16578;53.266;7.920;2022-12-13T06:13:27;45.88;;;24.50;;
29662;SDS011;16578;53.266;7.920;2022-12-13T06:15:53;54.95;;;26.23;;
29662;SDS011;16578;53.266;7.920;2022-12-13T06:18:19;44.72;;;23.92;;
29662;SDS011;16578;53.266;7.920;2022-12-13T06:20:44;47.40;;;25.65;;
29662;SDS011;16578;53.266;7.920;2022-12-13T06:23:19;40.22;;;23.77;;
29662;SDS011;16578;53.266;7.920;2022-12-13T06:25:44;65.28;;;26.35;;
29662;SDS011;16578;53.266;7.920;2022-12-13T06:28:10;41.03;;;23.30;;
29662;SDS011;16578;53.266;7.920;2022-12-13T06:30:36;53.60;;;24.70;;
29662;SDS011;16578;53.266;7.920;2022-12-13T06:33:01;45.15;;;25.23;;
29662;SDS011;16578;53.266;7.920;2022-12-13T06:35:27;66.25;;;24.85;;
29662;SDS011;16578;53.266;7.920;2022-12-13T06:37:52;42.63;;;23.60;;
29662;SDS011;16578;53.266;7.920;2022-12-13T06:40:18;55.58;;;23.73;;
29662;SDS011;16578;53.266;7.920;2022-12-13T06:42:44;43.03;;;24.40;;
29662;SDS011;16578;53.266;7.920;2022-12-13T06:45:10;43.92;;;23.27;;
29662;SDS011;16578;53.266;7.920;2022-12-13T06:47:35;43.20;;;23.17;;
29662;SDS011;16578;53.266;7.920;2022-12-13T06:50:01;52.35;;;23.50;;
29662;SDS011;16578;53.266;7.920;2022-12-13T06:52:27;50.28;;;23.70;;
29662;SDS011;16578;53.266;7.920;2022-12-13T06:54:52;62.30;;;25.50;;
29662;SDS011;16578;53.266;7.920;2022-12-13T06:57:18;40.90;;;22.95;;
29662;SDS011;16578;53.266;7.920;2022-12-13T06:59:44;49.88;;;22.83;;
29662;SDS011;16578;53.266;7.920;2022-12-13T07:02:09;42.83;;;22.00;;
29662;SDS011;16578;53.266;7.920;2022-12-13T07:04:35;45.25;;;24.48;;
29662;SDS011;16578;53.266;7.920;2022-12-13T07:07:00;44.65;;;23.85;;
29662;SDS011;16578;53.266;7.920;2022-12-13T07:09:26;42.95;;;23.23;;
29662;SDS011;16578;53.266;7.920;2022-12-13T07:11:52;50.30;;;24.42;;
29662;SDS011;16578;53.266;7.920;2022-12-13T07:14:18;46.65;;;24.38;;
29662;SDS011;16578;53.266;7.920;2022-12-13T07:16:44;46.28;;;24.50;;
29662;SDS011;16578;53.266;7.920;2022-12-13T07:19:09;42.63;;;23.48;;
29662;SDS011;16578;53.266;7.920;2022-12-13T07:21:35;45.25;;;23.63;;
29662;SDS011;16578;53.266;7.920;2022-12-13T07:24:03;43.67;;;23.40;;
29662;SDS011;16578;53.266;7.920;2022-12-13T07:26:28;48.17;;;25.45;;
29662;SDS011;16578;53.266;7.920;2022-12-13T07:28:54;41.35;;;23.48;;
29662;SDS011;16578;53.266;7.920;2022-12-13T07:31:20;43.33;;;24.67;;
29662;SDS011;16578;53.266;7.920;2022-12-13T07:33:46;41.58;;;22.73;;
29662;SDS011;16578;53.266;7.920;2022-12-13T07:38:38;42.72;;;24.58;;
29662;SDS011;16578;53.266;7.920;2022-12-13T07:41:04;38.72;;;21.88;;
29662;SDS011;16578;53.266;7.920;2022-12-13T07:43:32;44.03;;;24.30;;
29662;SDS011;16578;53.266;7.920;2022-12-13T07:45:58;40.58;;;24.60;;
29662;SDS011;16578;53.266;7.920;2022-12-13T07:48:26;48.92;;;26.67;;
29662;SDS011;16578;53.266;7.920;2022-12-13T07:50:52;50.17;;;26.52;;
29662;SDS011;16578;53.266;7.920;2022-12-13T07:53:18;48.88;;;24.52;;
29662;SDS011;16578;53.266;7.920;2022-12-13T07:55:45;41.55;;;23.40;;
29662;SDS011;16578;53.266;7.920;2022-12-13T07:58:12;51.75;;;25.70;;
29662;SDS011;16578;53.266;7.920;2022-12-13T08:00:40;37.85;;;21.17;;
29662;SDS011;16578;53.266;7.920;2022-12-13T08:03:06;37.83;;;22.15;;
29662;SDS011;16578;53.266;7.920;2022-12-13T08:05:32;41.42;;;23.83;;
29662;SDS011;16578;53.266;7.920;2022-12-13T08:07:59;44.28;;;22.77;;
29662;SDS011;16578;53.266;7.920;2022-12-13T08:10:25;44.78;;;25.00;;
29662;SDS011;16578;53.266;7.920;2022-12-13T08:12:51;41.10;;;24.77;;
29662;SDS011;16578;53.266;7.920;2022-12-13T08:15:17;44.72;;;23.95;;
29662;SDS011;16578;53.266;7.920;2022-12-13T08:17:43;43.33;;;26.48;;
29662;SDS011;16578;53.266;7.920;2022-12-13T08:20:08;40.88;;;23.88;;
29662;SDS011;16578;53.266;7.920;2022-12-13T08:22:34;43.90;;;23.88;;
29662;SDS011;16578;53.266;7.920;2022-12-13T08:25:00;46.25;;;24.92;;
29662;SDS011;16578;53.266;7.920;2022-12-13T08:27:26;46.60;;;24.92;;
29662;SDS011;16578;53.266;7.920;2022-12-13T08:29:52;43.85;;;25.50;;
29662;SDS011;16578;53.266;7.920;2022-12-13T08:32:17;42.70;;;23.92;;
29662;SDS011;16578;53.266;7.920;2022-12-13T08:34:43;40.25;;;22.90;;
29662;SDS011;16578;53.266;7.920;2022-12-13T08:39:38;39.25;;;22.98;;
29662;SDS011;16578;53.266;7.920;2022-12-13T08:42:04;46.85;;;26.30;;
29662;SDS011;16578;53.266;7.920;2022-12-13T08:44:38;43.00;;;25.15;;
29662;SDS011;16578;53.266;7.920;2022-12-13T08:47:03;41.45;;;24.63;;
29662;SDS011;16578;53.266;7.920;2022-12-13T08:49:29;42.92;;;22.80;;
29662;SDS011;16578;53.266;7.920;2022-12-13T08:51:55;42.72;;;23.35;;
29662;SDS011;16578;53.266;7.920;2022-12-13T08:54:20;42.15;;;24.63;;
29662;SDS011;16578;53.266;7.920;2022-12-13T08:56:46;41.53;;;23.08;;
29662;SDS011;16578;53.266;7.920;2022-12-13T08:59:11;47.13;;;26.63;;
29662;SDS011;16578;53.266;7.920;2022-12-13T09:01:38;61.47;;;26.88;;
29662;SDS011;16578;53.266;7.920;2022-12-13T09:04:03;48.40;;;25.45;;
29662;SDS011;16578;53.266;7.920;2022-12-13T09:06:29;46.30;;;23.85;;
29662;SDS011;16578;53.266;7.920;2022-12-13T09:08:54;44.35;;;24.02;;
29662;SDS011;16578;53.266;7.920;2022-12-13T09:11:20;44.92;;;24.25;;
29662;SDS011;16578;53.266;7.920;2022-12-13T09:13:46;47.65;;;24.55;;
29662;SDS011;16578;53.266;7.920;2022-12-13T09:16:15;45.13;;;24.08;;
29662;SDS011;16578;53.266;7.920;2022-12-13T09:18:43;44.10;;;24.15;;
29662;SDS011;16578;53.266;7.920;2022-12-13T09:21:11;49.83;;;26.63;;
29662;SDS011;16578;53.266;7.920;2022-12-13T09:23:38;53.00;;;25.90;;
29662;SDS011;16578;53.266;7.920;2022-12-13T09:26:06;45.30;;;24.90;;
29662;SDS011;16578;53.266;7.920;2022-12-13T09:28:32;41.30;;;21.95;;
29662;SDS011;16578;53.266;7.920;2022-12-13T09:31:04;49.47;;;25.05;;
29662;SDS011;16578;53.266;7.920;2022-12-13T09:33:34;47.83;;;25.15;;
29662;SDS011;16578;53.266;7.920;2022-12-13T09:36:02;45.55;;;24.38;;
29662;SDS011;16578;53.266;7.920;2022-12-13T09:38:30;49.47;;;26.40;;
29662;SDS011;16578;53.266;7.920;2022-12-13T09:40:56;53.17;;;26.90;;
29662;SDS011;16578;53.266;7.920;2022-12-13T09:43:28;48.00;;;27.08;;
29662;SDS011;16578;53.266;7.920;2022-12-13T09:45:56;49.35;;;26.15;;
29662;SDS011;16578;53.266;7.920;2022-12-13T09:48:24;48.60;;;24.85;;
29662;SDS011;16578;53.266;7.920;2022-12-13T09:50:50;46.30;;;25.20;;
29662;SDS011;16578;53.266;7.920;2022-12-13T09:53:16;54.10;;;27.10;;
29662;SDS011;16578;53.266;7.920;2022-12-13T09:55:44;43.20;;;23.20;;
29662;SDS011;16578;53.266;7.920;2022-12-13T09:58:19;49.20;;;24.98;;
29662;SDS011;16578;53.266;7.920;2022-12-13T10:00:50;53.03;;;29.13;;
29662;SDS011;16578;53.266;7.920;2022-12-13T10:03:18;62.55;;;33.10;;
29662;SDS011;16578;53.266;7.920;2022-12-13T10:05:46;59.70;;;30.63;;
29662;SDS011;16578;53.266;7.920;2022-12-13T10:08:23;59.00;;;30.00;;
29662;SDS011;16578;53.266;7.920;2022-12-13T10:10:57;48.88;;;27.63;;
29662;SDS011;16578;53.266;7.920;2022-12-13T10:13:24;50.85;;;27.23;;
29662;SDS011;16578;53.266;7.920;2022-12-13T10:16:05;49.15;;;25.38;;
29662;SDS011;16578;53.266;7.920;2022-12-13T10:18:52;44.92;;;25.13;;
29662;SDS011;16578;53.266;7.920;2022-12-13T10:21:30;45.25;;;25.17;;
29662;SDS011;16578;53.266;7.920;2022-12-13T10:24:18;48.60;;;26.90;;
29662;SDS011;16578;53.266;7.920;2022-12-13T10:26:51;46.67;;;24.42;;
29662;SDS011;16578;53.266;7.920;2022-12-13T10:29:18;57.05;;;27.40;;
29662;SDS011;16578;53.266;7.920;2022-12-13T10:31:51;46.20;;;24.38;;
29662;SDS011;16578;53.266;7.920;2022-12-13T10:34:21;48.15;;;23.38;;
29662;SDS011;16578;53.266;7.920;2022-12-13T10:36:49;48.50;;;24.75;;
29662;SDS011;16578;53.266;7.920;2022-12-13T10:39:34;48.10;;;24.15;;
29662;SDS011;16578;53.266;7.920;2022-12-13T10:42:03;46.42;;;26.08;;
29662;SDS011;16578;53.266;7.920;2022-12-13T10:44:40;47.58;;;24.60;;
29662;SDS011;16578;53.266;7.920;2022-12-13T10:49:53;50.33;;;27.48;;
29662;SDS011;16578;53.266;7.920;2022-12-13T10:52:31;52.22;;;25.73;;
29662;SDS011;16578;53.266;7.920;2022-12-13T10:58:01;51.42;;;25.77;;
29662;SDS011;16578;53.266;7.920;2022-12-13T11:03:30;45.95;;;26.20;;
29662;SDS011;16578;53.266;7.920;2022-12-13T11:06:13;51.60;;;25.67;;
29662;SDS011;16578;53.266;7.920;2022-12-13T11:08:42;50.85;;;27.45;;
29662;SDS011;16578;53.266;7.920;2022-12-13T11:11:08;51.38;;;28.50;;
29662;SDS011;16578;53.266;7.920;2022-12-13T11:13:55;60.90;;;29.05;;
29662;SDS011;16578;53.266;7.920;2022-12-13T11:19:47;55.35;;;29.13;;
29662;SDS011;16578;53.266;7.920;2022-12-13T11:22:03;49.25;;;26.67;;
29662;SDS011;16578;53.266;7.920;2022-12-13T11:24:32;50.38;;;26.80;;
29662;SDS011;16578;53.266;7.920;2022-12-13T11:27:02;52.03;;;26.52;;
29662;SDS011;16578;53.266;7.920;2022-12-13T11:29:56;59.17;;;30.35;;
29662;SDS011;16578;53.266;7.920;2022-12-13T11:35:32;51.45;;;26.33;;
29662;SDS011;16578;53.266;7.920;2022-12-13T11:38:33;59.83;;;30.02;;
29662;SDS011;16578;53.266;7.920;2022-12-13T11:41:24;59.95;;;32.30;;
29662;SDS011;16578;53.266;7.920;2022-12-13T11:46:57;54.42;;;28.88;;
29662;SDS011;16578;53.266;7.920;2022-12-13T11:49:36;57.53;;;30.77;;
29662;SDS011;16578;53.266;7.920;2022-12-13T11:52:16;60.72;;;30.90;;
29662;SDS011;16578;53.266;7.920;2022-12-13T11:55:02;62.85;;;33.72;;
29662;SDS011;16578;53.266;7.920;2022-12-13T12:03:08;57.25;;;28.70;;
29662;SDS011;16578;53.266;7.920;2022-12-13T12:05:53;61.45;;;31.95;;
29662;SDS011;16578;53.266;7.920;2022-12-13T12:13:58;67.18;;;34.72;;
29662;SDS011;16578;53.266;7.920;2022-12-13T12:19:17;63.65;;;33.75;;
29662;SDS011;16578;53.266;7.920;2022-12-13T12:21:58;61.30;;;32.80;;
29662;SDS011;16578;53.266;7.920;2022-12-13T12:30:20;57.88;;;29.60;;
29662;SDS011;16578;53.266;7.920;2022-12-13T12:41:23;64.75;;;33.20;;
29662;SDS011;16578;53.266;7.920;2022-12-13T12:57:56;67.38;;;34.65;;
29662;SDS011;16578;53.266;7.920;2022-12-13T13:00:42;65.78;;;34.03;;
29662;SDS011;16578;53.266;7.920;2022-12-13T13:05:46;63.35;;;31.63;;
29662;SDS011;16578;53.266;7.920;2022-12-13T13:10:49;64.82;;;32.30;;
29662;SDS011;16578;53.266;7.920;2022-12-13T13:16:26;82.68;;;43.08;;
29662;SDS011;16578;53.266;7.920;2022-12-13T13:18:57;91.32;;;47.95;;
29662;SDS011;16578;53.266;7.920;2022-12-13T13:21:39;96.82;;;47.45;;
29662;SDS011;16578;53.266;7.920;2022-12-13T13:26:39;93.75;;;43.28;;
29662;SDS011;16578;53.266;7.920;2022-12-13T13:29:19;83.18;;;42.63;;
29662;SDS011;16578;53.266;7.920;2022-12-13T13:34:44;87.05;;;43.10;;
29662;SDS011;16578;53.266;7.920;2022-12-13T13:42:20;64.25;;;33.10;;
29662;SDS011;16578;53.266;7.920;2022-12-13T13:47:13;69.28;;;35.95;;
29662;SDS011;16578;53.266;7.920;2022-12-13T13:58:32;68.80;;;35.67;;
29662;SDS011;16578;53.266;7.920;2022-12-13T14:01:21;65.35;;;34.40;;
29662;SDS011;16578;53.266;7.920;2022-12-13T14:10:12;58.13;;;29.65;;
29662;SDS011;16578;53.266;7.920;2022-12-13T14:30:02;53.92;;;28.25;;
29662;SDS011;16578;53.266;7.920;2022-12-13T14:32:30;60.60;;;31.73;;
29662;SDS011;16578;53.266;7.920;2022-12-13T14:34:59;66.57;;;35.42;;
29662;SDS011;16578;53.266;7.920;2022-12-13T14:37:26;59.63;;;30.65;;
29662;SDS011;16578;53.266;7.920;2022-12-13T14:39:52;63.85;;;32.10;;
29662;SDS011;16578;53.266;7.920;2022-12-13T14:44:48;85.05;;;40.08;;
29662;SDS011;16578;53.266;7.920;2022-12-13T14:47:14;71.38;;;34.20;;
29662;SDS011;16578;53.266;7.920;2022-12-13T14:49:41;70.80;;;35.30;;
29662;SDS011;16578;53.266;7.920;2022-12-13T14:54:48;71.35;;;34.58;;
29662;SDS011;16578;53.266;7.920;2022-12-13T14:57:18;85.20;;;38.90;;
29662;SDS011;16578;53.266;7.920;2022-12-13T14:59:47;80.07;;;38.47;;
29662;SDS011;16578;53.266;7.920;2022-12-13T15:02:14;74.35;;;33.95;;
29662;SDS011;16578;53.266;7.920;2022-12-13T15:04:43;68.00;;;35.95;;
29662;SDS011;16578;53.266;7.920;2022-12-13T15:09:41;72.20;;;34.53;;
29662;SDS011;16578;53.266;7.920;2022-12-13T15:12:17;87.07;;;40.67;;
29662;SDS011;16578;53.266;7.920;2022-12-13T15:14:45;93.97;;;43.45;;
29662;SDS011;16578;53.266;7.920;2022-12-13T15:19:56;90.38;;;40.33;;
29662;SDS011;16578;53.266;7.920;2022-12-13T15:22:22;90.10;;;41.50;;
29662;SDS011;16578;53.266;7.920;2022-12-13T15:24:48;82.80;;;38.05;;
29662;SDS011;16578;53.266;7.920;2022-12-13T15:27:15;80.05;;;39.40;;
29662;SDS011;16578;53.266;7.920;2022-12-13T15:29:48;75.35;;;36.67;;
29662;SDS011;16578;53.266;7.920;2022-12-13T15:32:15;83.95;;;40.72;;
29662;SDS011;16578;53.266;7.920;2022-12-13T15:34:47;70.30;;;33.30;;
29662;SDS011;16578;53.266;7.920;2022-12-13T15:37:19;84.25;;;38.83;;
29662;SDS011;16578;53.266;7.920;2022-12-13T15:39:53;82.53;;;39.13;;
29662;SDS011;16578;53.266;7.920;2022-12-13T15:42:32;79.28;;;39.50;;
29662;SDS011;16578;53.266;7.920;2022-12-13T15:45:02;77.95;;;36.25;;
29662;SDS011;16578;53.266;7.920;2022-12-13T15:47:30;76.32;;;36.10;;
29662;SDS011;16578;53.266;7.920;2022-12-13T15:50:00;77.68;;;39.40;;
29662;SDS011;16578;53.266;7.920;2022-12-13T15:52:39;70.05;;;35.35;;
29662;SDS011;16578;53.266;7.920;2022-12-13T15:57:31;65.22;;;32.65;;
29662;SDS011;16578;53.266;7.920;2022-12-13T16:02:31;67.32;;;31.60;;
29662;SDS011;16578;53.266;7.920;2022-12-13T16:05:07;65.28;;;32.30;;
29662;SDS011;16578;53.266;7.920;2022-12-13T16:07:42;71.93;;;32.53;;
29662;SDS011;16578;53.266;7.920;2022-12-13T16:10:07;73.50;;;32.80;;
29662;SDS011;16578;53.266;7.920;2022-12-13T16:13:23;76.47;;;37.05;;
29662;SDS011;16578;53.266;7.920;2022-12-13T16:15:31;74.00;;;35.33;;
29662;SDS011;16578;53.266;7.920;2022-12-13T16:20:56;87.97;;;41.17;;
29662;SDS011;16578;53.266;7.920;2022-12-13T16:23:21;77.88;;;38.40;;
29662;SDS011;16578;53.266;7.920;2022-12-13T16:25:47;81.70;;;37.67;;
29662;SDS011;16578;53.266;7.920;2022-12-13T16:28:13;81.20;;;37.67;;
29662;SDS011;16578;53.266;7.920;2022-12-13T16:33:18;86.57;;;40.25;;
29662;SDS011;16578;53.266;7.920;2022-12-13T16:35:47;86.43;;;38.15;;
29662;SDS011;16578;53.266;7.920;2022-12-13T16:38:13;79.25;;;36.60;;
29662;SDS011;16578;53.266;7.920;2022-12-13T16:40:40;86.22;;;39.38;;
29662;SDS011;16578;53.266;7.920;2022-12-13T16:43:12;83.72;;;40.50;;
29662;SDS011;16578;53.266;7.920;2022-12-13T16:45:47;82.53;;;40.75;;
29662;SDS011;16578;53.266;7.920;2022-12-13T16:48:15;90.07;;;41.10;;
29662;SDS011;16578;53.266;7.920;2022-12-13T16:50:43;94.22;;;44.75;;
29662;SDS011;16578;53.266;7.920;2022-12-13T16:53:10;93.13;;;43.55;;
29662;SDS011;16578;53.266;7.920;2022-12-13T16:55:36;87.63;;;41.92;;
29662;SDS011;16578;53.266;7.920;2022-12-13T16:58:11;89.50;;;40.15;;
29662;SDS011;16578;53.266;7.920;2022-12-13T17:00:38;92.70;;;39.28;;
29662;SDS011;16578;53.266;7.920;2022-12-13T17:03:04;89.53;;;38.83;;
29662;SDS011;16578;53.266;7.920;2022-12-13T17:05:31;90.15;;;39.88;;
29662;SDS011;16578;53.266;7.920;2022-12-13T17:07:58;63.40;;;29.23;;
29662;SDS011;16578;53.266;7.920;2022-12-13T17:10:24;90.72;;;38.80;;
29662;SDS011;16578;53.266;7.920;2022-12-13T17:12:51;88.28;;;40.17;;